Terminal Aerodrome Forecast
Issued by NWS Chicago, IL

Home | Current Version | Previous Version | Text Only | Print | Product List | Glossary On
Versions: 1 2 3 4 5 6 7 8 9 10 11 12 13 14 15 16 17 18 19 20 21 22 23 24 25 26 27 28 29 30 31
000
FTUS43 KLOT 191725
TAFRFD
TAF
KRFD 191725Z 1918/2018 10012G17KT P6SM SCT040 BKN250
     FM192100 05015KT 6SM BR VCSH BKN040 OVC080
     FM192300 03012KT 5SM -SHRA BR OVC015
     FM200300 36006KT 6SM -SHRA OVC008
     FM200600 31008KT 6SM BR VCSH BKN008 OVC015
     FM201400 30020G30KT 6SM -SHRA SCT008 OVC015=

USA.gov is the U.S. government's official web portal to all federal, state and local government web resources and services.